Time;durP1;ratioP1;P1;durP2;ratioP2;P2;SDS_P1;SDS_P2;PMS_P1;PMS_P2;Temp;Humidity;BMP_temperature;BMP_pressure;BME280_temperature;BME280_humidity;BME280_pressure;Samples;Min_cycle;Max_cycle;Signal;HPM_P1;HPM_P2
2024/01/11 00:00:36;;;;;;;;;;;;;;;0.58;65.92;99517.55;109624;1253;61728;-63
2024/01/11 00:03:04;;;;;;;;;;;;;;;0.77;65.76;99526.08;109301;1254;59764;-61
2024/01/11 00:05:31;;;;;;;;;;;;;;;0.83;65.26;99520.73;109479;1252;74348;-61
2024/01/11 00:07:59;;;;;;;;;;;;;;;0.79;65.61;99506.59;109448;1252;68352;-61
2024/01/11 00:10:26;;;;;;;;;;;;;;;0.69;65.87;99499.31;109610;1252;72748;-63
2024/01/11 00:12:54;;;;;;;;;;;;;;;0.66;66.21;99502.25;109549;1253;61767;-60
2024/01/11 00:15:21;;;;;;;;;;;;;;;0.79;65.74;99498.98;109674;1252;60022;-61
2024/01/11 00:17:49;;;;;;;;;;;;;;;0.77;65.95;99494.61;109633;1256;75450;-63
2024/01/11 00:20:17;;;;;;;;;;;;;;;0.88;65.45;99496.13;109608;1251;67542;-60
2024/01/11 00:22:44;;;;;;;;;;;;;;;1.12;64.95;99496.69;109582;1251;72734;-62
2024/01/11 00:25:12;;;;;;;;;;;;;;;0.94;65.08;99482.63;109617;1253;61730;-60
2024/01/11 00:27:39;;;;;;;;;;;;;;;0.68;66.18;99476.58;109643;1252;59866;-61
2024/01/11 00:30:07;;;;;;;;;;;;;;;0.59;66.91;99476.08;109571;1251;75517;-62
2024/01/11 00:32:35;;;;;;;;;;;;;;;1.10;65.31;99481.72;109585;1254;69299;-62
2024/01/11 00:35:03;;;;;;;;;;;;;;;0.99;65.32;99479.94;109635;1253;71741;-61
2024/01/11 00:37:30;;;;;;;;;;;;;;;1.12;64.58;99477.25;109635;1251;61708;-60
2024/01/11 00:39:58;;;;;;;;;;;;;;;1.12;64.72;99479.02;109441;1253;59888;-61
2024/01/11 00:42:25;;;;;;;;;;;;;;;1.17;64.01;99481.02;109277;1251;75509;-60
2024/01/11 00:44:53;;;;;;;;;;;;;;;0.98;64.87;99476.95;109375;1252;68851;-66
2024/01/11 00:47:20;;;;;;;;;;;;;;;1.17;64.21;99472.98;109621;1252;72765;-61
2024/01/11 00:49:48;;;;;;;;;;;;;;;1.12;64.30;99471.36;109595;1254;61772;-63
2024/01/11 00:52:15;;;;;;;;;;;;;;;1.27;63.43;99460.91;109619;1253;59847;-63
2024/01/11 00:54:43;;;;;;;;;;;;;;;1.21;63.89;99454.08;109581;1253;74258;-61
2024/01/11 00:57:10;;;;;;;;;;;;;;;1.16;63.82;99444.83;109661;1252;67554;-60
2024/01/11 00:59:39;;;;;;;;;;;;;;;1.30;63.27;99440.59;109606;1252;72696;-64
2024/01/11 01:02:07;;;;;;;;;;;;;;;1.22;63.45;99434.73;109522;1253;60457;-63
2024/01/11 01:04:37;;;;;;;;;;;;;;;1.30;63.24;99428.70;109566;1254;59894;-63
2024/01/11 01:07:05;;;;;;;;;;;;;;;1.17;63.52;99427.42;109185;1253;75512;-60
2024/01/11 01:09:33;;;;;;;;;;;;;;;1.32;63.06;99427.50;109538;1253;68508;-60
2024/01/11 01:12:00;;;;;;;;;;;;;;;1.41;62.66;99420.79;109540;1253;73152;-61
2024/01/11 01:14:29;;;;;;;;;;;;;;;1.38;62.43;99420.73;109530;1252;61736;-60
2024/01/11 01:16:56;;;;;;;;;;;;;;;1.23;63.13;99413.41;109575;1252;59791;-59
2024/01/11 01:19:24;;;;;;;;;;;;;;;1.17;63.96;99409.60;109532;1253;74276;-60
2024/01/11 01:21:52;;;;;;;;;;;;;;;1.25;63.57;99403.86;109580;1253;68618;-60
2024/01/11 01:24:19;;;;;;;;;;;;;;;1.46;62.83;99413.97;109504;1254;72715;-60
2024/01/11 01:26:47;;;;;;;;;;;;;;;1.58;62.21;99412.98;109289;1255;60541;-60
2024/01/11 01:29:14;;;;;;;;;;;;;;;1.33;63.30;99410.73;109316;1254;59655;-60
2024/01/11 01:31:42;;;;;;;;;;;;;;;1.40;62.86;99403.85;109321;1254;75527;-61
2024/01/11 01:34:09;;;;;;;;;;;;;;;1.37;62.70;99396.11;107804;1254;1002886;-60
2024/01/11 01:36:37;;;;;;;;;;;;;;;1.28;62.84;99390.95;109063;1254;72723;-61
2024/01/11 01:39:05;;;;;;;;;;;;;;;1.23;63.06;99384.29;109267;1254;60760;-60
2024/01/11 01:41:32;;;;;;;;;;;;;;;1.49;62.12;99387.27;109341;1253;59780;-58
2024/01/11 01:44:00;;;;;;;;;;;;;;;1.47;62.19;99377.86;109295;1254;74196;-59
2024/01/11 01:46:27;;;;;;;;;;;;;;;1.49;61.94;99375.36;109374;1254;67229;-59
2024/01/11 01:48:56;;;;;;;;;;;;;;;1.34;62.51;99369.00;109291;1254;73312;-59
2024/01/11 01:51:24;;;;;;;;;;;;;;;1.33;62.31;99347.84;109344;1255;60679;-60
2024/01/11 01:53:52;;;;;;;;;;;;;;;1.44;62.09;99356.66;109432;1254;59860;-61
2024/01/11 01:56:20;;;;;;;;;;;;;;;1.47;61.87;99355.86;109537;1252;75536;-60
2024/01/11 01:58:48;;;;;;;;;;;;;;;1.76;60.87;99356.49;109571;1253;69116;-60
2024/01/11 02:01:15;;;;;;;;;;;;;;;1.36;61.62;99344.46;109581;1253;71454;-61
2024/01/11 02:03:43;;;;;;;;;;;;;;;1.72;60.55;99349.23;109360;1252;61721;-62
2024/01/11 02:06:11;;;;;;;;;;;;;;;1.61;60.73;99340.14;109590;1252;60770;-60
2024/01/11 02:08:38;;;;;;;;;;;;;;;1.37;61.23;99330.88;109582;1252;74077;-61
2024/01/11 02:11:06;;;;;;;;;;;;;;;1.14;62.01;99325.36;109235;1252;67664;-61
2024/01/11 02:13:33;;;;;;;;;;;;;;;1.23;62.02;99318.06;109527;1252;72710;-61
2024/01/11 02:16:01;;;;;;;;;;;;;;;1.19;62.26;99317.20;109604;1253;61721;-62
2024/01/11 02:18:28;;;;;;;;;;;;;;;1.44;61.87;99315.60;109600;1252;59846;-62
2024/01/11 02:20:56;;;;;;;;;;;;;;;1.50;61.99;99307.23;109402;1252;75503;-60
2024/01/11 02:23:24;;;;;;;;;;;;;;;1.05;63.77;99299.60;109568;1252;67634;-62
2024/01/11 02:25:51;;;;;;;;;;;;;;;1.32;63.36;99296.33;109478;1251;72808;-62
2024/01/11 02:28:19;;;;;;;;;;;;;;;1.16;63.88;99297.54;109616;1254;60740;-60
2024/01/11 02:30:47;;;;;;;;;;;;;;;1.32;63.60;99285.39;109614;1252;59704;-62
2024/01/11 02:33:15;;;;;;;;;;;;;;;1.09;64.48;99274.26;109612;1254;75613;-64
2024/01/11 02:35:44;;;;;;;;;;;;;;;1.02;64.29;99273.42;109605;1252;68959;-61
2024/01/11 02:38:14;;;;;;;;;;;;;;;1.18;63.59;99263.51;109559;1252;71408;-63
2024/01/11 02:40:42;;;;;;;;;;;;;;;1.05;64.15;99255.17;109287;1253;61746;-60
2024/01/11 02:43:10;;;;;;;;;;;;;;;1.02;64.04;99246.96;109642;1252;60072;-62
2024/01/11 02:45:37;;;;;;;;;;;;;;;1.02;64.12;99249.23;109620;1253;75546;-63
2024/01/11 02:48:05;;;;;;;;;;;;;;;1.32;63.22;99245.15;109604;1251;69010;-62
2024/01/11 02:50:33;;;;;;;;;;;;;;;1.47;62.37;99233.12;109544;1253;72724;-62
2024/01/11 02:53:00;;;;;;;;;;;;;;;1.33;62.63;99223.14;109339;1257;61720;-60
2024/01/11 02:55:28;;;;;;;;;;;;;;;1.09;63.94;99222.05;109561;1253;59821;-62
2024/01/11 02:57:55;;;;;;;;;;;;;;;1.37;63.31;99214.08;109617;1253;75539;-62
2024/01/11 03:00:23;;;;;;;;;;;;;;;1.60;62.39;99210.42;109551;1253;67329;-60
2024/01/11 03:02:51;;;;;;;;;;;;;;;1.59;62.41;99199.76;109104;1252;72744;-61
2024/01/11 03:05:18;;;;;;;;;;;;;;;1.46;62.80;99189.39;109513;1253;60459;-60
2024/01/11 03:07:46;;;;;;;;;;;;;;;1.30;63.92;99180.23;109540;1253;59700;-61
2024/01/11 03:10:13;;;;;;;;;;;;;;;1.44;63.48;99177.09;109477;1253;75568;-60
2024/01/11 03:12:41;;;;;;;;;;;;;;;1.38;63.56;99168.56;109123;1252;68616;-62
2024/01/11 03:15:08;;;;;;;;;;;;;;;1.30;63.86;99166.76;109293;1253;72731;-60
2024/01/11 03:17:36;;;;;;;;;;;;;;;1.24;64.17;99161.90;109316;1253;60494;-62
2024/01/11 03:20:05;;;;;;;;;;;;;;;0.91;66.05;99159.80;109517;1253;59755;-61
2024/01/11 03:22:33;;;;;;;;;;;;;;;0.90;65.99;99152.69;109532;1253;75504;-64
2024/01/11 03:25:00;;;;;;;;;;;;;;;1.09;65.97;99152.26;109468;1253;68842;-64
2024/01/11 03:27:28;;;;;;;;;;;;;;;1.49;64.12;99140.11;109447;1253;72770;-63
2024/01/11 03:29:55;;;;;;;;;;;;;;;1.52;63.75;99145.20;109441;1256;59800;-63
2024/01/11 03:32:22;;;;;;;;;;;;;;;1.26;64.79;99129.13;109505;1253;59663;-62
2024/01/11 03:34:50;;;;;;;;;;;;;;;1.29;65.03;99122.74;109516;1252;75510;-61
2024/01/11 03:37:18;;;;;;;;;;;;;;;1.69;63.87;99117.20;109489;1253;66873;-60
2024/01/11 03:39:45;;;;;;;;;;;;;;;1.25;65.34;99111.27;109246;1256;72721;-61
2024/01/11 03:42:13;;;;;;;;;;;;;;;1.31;65.81;99100.20;109245;1256;60463;-64
2024/01/11 03:44:40;;;;;;;;;;;;;;;1.44;68.92;99098.28;109277;1258;59889;-62
2024/01/11 03:47:08;;;;;;;;;;;;;;;1.39;68.67;99094.05;109308;1256;74488;-61
2024/01/11 03:49:35;;;;;;;;;;;;;;;1.34;67.39;99084.70;109293;1255;67292;-61
2024/01/11 03:52:03;;;;;;;;;;;;;;;1.46;66.61;99074.60;109288;1256;71489;-59
2024/01/11 03:54:30;;;;;;;;;;;;;;;1.55;66.34;99069.49;109216;1256;61736;-58
2024/01/11 03:56:58;;;;;;;;;;;;;;;1.53;66.84;99073.16;109249;1255;59951;-61
2024/01/11 03:59:25;;;;;;;;;;;;;;;1.51;66.40;99066.10;109287;1255;75563;-60
2024/01/11 04:01:53;;;;;;;;;;;;;;;1.30;67.10;99057.34;109294;1255;68970;-60
2024/01/11 04:04:22;;;;;;;;;;;;;;;1.46;66.58;99058.93;109256;1255;72677;-58
2024/01/11 04:06:49;;;;;;;;;;;;;;;1.77;64.66;99066.13;109232;1256;61755;-60
2024/01/11 04:09:17;;;;;;;;;;;;;;;1.68;63.52;99067.70;109282;1256;60206;-61
2024/01/11 04:11:44;;;;;;;;;;;;;;;1.41;64.76;99061.83;109312;1255;75513;-61
2024/01/11 04:14:12;;;;;;;;;;;;;;;1.83;62.73;99067.11;109347;1253;67527;-60
2024/01/11 04:16:43;;;;;;;;;;;;;;;1.52;62.66;99066.90;109331;1253;72851;-61
2024/01/11 04:19:10;;;;;;;;;;;;;;;1.28;63.92;99071.20;109181;1256;60353;-61
2024/01/11 04:21:41;;;;;;;;;;;;;;;1.42;63.23;99071.11;109107;1256;59906;-60
2024/01/11 04:24:08;;;;;;;;;;;;;;;1.24;63.57;99067.71;109095;1260;74244;-58
2024/01/11 04:26:36;;;;;;;;;;;;;;;1.51;62.58;99059.50;109124;1256;68844;-59
2024/01/11 04:29:03;;;;;;;;;;;;;;;0.96;63.95;99056.79;108313;1256;1002916;-58
2024/01/11 04:31:31;;;;;;;;;;;;;;;1.14;63.45;99062.87;109186;1256;60729;-59
2024/01/11 04:33:58;;;;;;;;;;;;;;;1.35;61.72;99053.27;109149;1256;59956;-59
2024/01/11 04:36:26;;;;;;;;;;;;;;;1.29;61.64;99058.84;109096;1256;74229;-59
2024/01/11 04:38:53;;;;;;;;;;;;;;;1.35;61.58;99063.42;109097;1256;68720;-59
2024/01/11 04:41:21;;;;;;;;;;;;;;;1.20;61.32;99054.62;109080;1256;72697;-59
2024/01/11 04:43:48;;;;;;;;;;;;;;;1.60;60.20;99054.88;109054;1257;60752;-59
2024/01/11 04:46:16;;;;;;;;;;;;;;;1.30;60.39;99049.43;109095;1256;59892;-63
2024/01/11 04:48:44;;;;;;;;;;;;;;;1.22;61.03;99042.78;109096;1256;75555;-60
2024/01/11 04:51:12;;;;;;;;;;;;;;;1.37;60.51;99038.08;109131;1253;68953;-59
2024/01/11 04:53:39;;;;;;;;;;;;;;;1.41;60.36;99037.14;109134;1253;72766;-59
2024/01/11 04:56:07;;;;;;;;;;;;;;;1.45;59.76;99038.99;109467;1253;61743;-59
2024/01/11 04:58:35;;;;;;;;;;;;;;;1.72;58.99;99042.45;109327;1254;59686;-59
2024/01/11 05:01:02;;;;;;;;;;;;;;;1.56;59.13;99047.52;109439;1253;75495;-60
2024/01/11 05:03:31;;;;;;;;;;;;;;;1.61;58.87;99045.51;109476;1253;68999;-61
2024/01/11 05:05:59;;;;;;;;;;;;;;;1.68;58.51;99042.59;109464;1253;72721;-62
2024/01/11 05:08:27;;;;;;;;;;;;;;;1.51;58.85;99030.20;109467;1252;61726;-61
2024/01/11 05:10:55;;;;;;;;;;;;;;;1.77;58.14;99029.50;109512;1253;59942;-62
2024/01/11 05:13:30;;;;;;;;;;;;;;;1.57;58.65;99021.63;102719;1295;599273;-60
2024/01/11 05:15:58;;;;;;;;;;;;;;;1.35;59.73;99017.89;104900;1270;61704;-60
2024/01/11 05:18:25;;;;;;;;;;;;;;;1.40;60.01;99021.63;104907;1264;59930;-62
2024/01/11 05:20:54;;;;;;;;;;;;;;;1.68;58.94;99020.45;107412;1256;72264;-60
2024/01/11 05:23:21;;;;;;;;;;;;;;;1.79;58.93;99019.84;105483;1258;69464;-59
2024/01/11 05:25:49;;;;;;;;;;;;;;;1.70;59.38;99021.25;105140;1257;70570;-61
2024/01/11 05:28:16;;;;;;;;;;;;;;;1.69;60.02;99007.02;105639;1260;120085;-59
2024/01/11 05:30:44;;;;;;;;;;;;;;;1.65;60.49;99007.00;105585;1260;60486;-62
2024/01/11 05:33:11;;;;;;;;;;;;;;;1.96;59.69;99004.51;105384;1256;71267;-65
2024/01/11 05:35:39;;;;;;;;;;;;;;;1.93;59.80;99006.83;105348;1254;68597;-60
2024/01/11 05:38:07;;;;;;;;;;;;;;;1.75;60.74;99004.08;105559;1258;72682;-62
2024/01/11 05:40:35;;;;;;;;;;;;;;;1.37;62.11;98998.61;105659;1260;61883;-61
2024/01/11 05:43:02;;;;;;;;;;;;;;;1.60;61.93;99000.16;105660;1260;59989;-61
2024/01/11 05:45:30;;;;;;;;;;;;;;;1.68;61.23;98999.52;105525;1260;75506;-59
2024/01/11 05:48:13;;;;;;;;;;;;;;;1.86;60.40;98997.91;105475;1254;68991;-59
2024/01/11 05:50:42;;;;;;;;;;;;;;;1.77;60.39;99007.97;105664;1260;72708;-60
2024/01/11 05:53:10;;;;;;;;;;;;;;;1.94;60.22;99002.84;105736;1261;61783;-60
2024/01/11 05:55:37;;;;;;;;;;;;;;;1.80;60.04;98995.42;104652;1254;1002955;-60
2024/01/11 05:58:05;;;;;;;;;;;;;;;1.98;59.44;98995.41;105287;1254;73212;-60
2024/01/11 06:00:32;;;;;;;;;;;;;;;1.85;59.68;98984.56;105603;1261;67303;-60
2024/01/11 06:03:00;;;;;;;;;;;;;;;1.96;59.47;98958.94;105638;1259;72702;-60
2024/01/11 06:05:28;;;;;;;;;;;;;;;1.87;59.68;98947.14;105672;1260;60638;-59
2024/01/11 06:07:56;;;;;;;;;;;;;;;2.02;59.27;98948.85;105685;1257;60598;-62
2024/01/11 06:10:23;;;;;;;;;;;;;;;1.77;59.88;98938.48;105653;1260;71983;-59
2024/01/11 06:12:51;;;;;;;;;;;;;;;1.67;60.36;98940.16;105199;1258;69252;-60
2024/01/11 06:15:19;;;;;;;;;;;;;;;2.15;59.19;98954.34;105530;1261;72843;-60
2024/01/11 06:17:47;;;;;;;;;;;;;;;1.89;60.51;98955.80;105665;1257;60416;-59
2024/01/11 06:20:14;;;;;;;;;;;;;;;2.08;60.11;98955.48;105637;1255;59806;-60
2024/01/11 06:22:42;;;;;;;;;;;;;;;2.02;60.20;98948.06;105285;1263;73111;-62
2024/01/11 06:25:12;;;;;;;;;;;;;;;2.01;60.51;98949.77;105253;1258;67816;-61
2024/01/11 06:27:42;;;;;;;;;;;;;;;1.93;60.76;98950.61;105217;1266;73811;-60
2024/01/11 06:30:10;;;;;;;;;;;;;;;1.88;61.72;98949.24;105616;1260;60475;-60
2024/01/11 06:32:38;;;;;;;;;;;;;;;2.16;60.90;98950.10;105258;1257;59582;-60
2024/01/11 06:35:06;;;;;;;;;;;;;;;2.03;61.41;98946.03;105585;1257;73077;-60
2024/01/11 06:37:34;;;;;;;;;;;;;;;2.03;61.57;98950.91;105626;1258;68673;-60
2024/01/11 06:40:03;;;;;;;;;;;;;;;1.74;62.63;98945.16;105653;1256;71769;-60
2024/01/11 06:42:31;;;;;;;;;;;;;;;1.94;61.97;98941.56;105538;1260;60885;-60
2024/01/11 06:44:58;;;;;;;;;;;;;;;1.84;62.08;98940.32;105681;1251;59895;-60
2024/01/11 06:47:26;;;;;;;;;;;;;;;1.76;62.34;98944.42;105744;1257;73375;-62
2024/01/11 06:49:54;;;;;;;;;;;;;;;1.75;62.00;98926.61;105795;1251;68508;-60
2024/01/11 06:52:21;;;;;;;;;;;;;;;2.01;61.05;98938.71;105808;1254;71669;-62
2024/01/11 06:54:49;;;;;;;;;;;;;;;2.34;59.81;98945.58;105901;1258;60459;-60
2024/01/11 06:57:17;;;;;;;;;;;;;;;2.17;59.89;98948.38;105929;1251;60216;-61
2024/01/11 06:59:46;;;;;;;;;;;;;;;2.16;60.09;98939.07;105886;1257;73058;-61
2024/01/11 07:02:14;;;;;;;;;;;;;;;2.14;59.78;98946.05;104926;1251;1002943;-63
2024/01/11 07:04:45;;;;;;;;;;;;;;;2.15;59.58;98944.54;105848;1258;73305;-60
2024/01/11 07:07:12;;;;;;;;;;;;;;;2.04;60.03;98938.44;105903;1257;59643;-60
2024/01/11 07:09:40;;;;;;;;;;;;;;;2.14;59.82;98930.85;105863;1251;59796;-59
2024/01/11 07:12:08;;;;;;;;;;;;;;;2.00;59.66;98932.41;105887;1257;73358;-59
2024/01/11 07:14:36;;;;;;;;;;;;;;;2.10;59.27;98935.44;105864;1257;66705;-61
2024/01/11 07:17:04;;;;;;;;;;;;;;;2.10;59.13;98934.54;105824;1257;72849;-60
2024/01/11 07:19:31;;;;;;;;;;;;;;;2.00;59.32;98924.83;105871;1257;62407;-60
2024/01/11 07:21:59;;;;;;;;;;;;;;;2.06;59.04;98922.10;105801;1253;59856;-61
2024/01/11 07:24:29;;;;;;;;;;;;;;;1.80;59.24;98908.75;105784;1257;73109;-61
2024/01/11 07:26:57;;;;;;;;;;;;;;;1.94;59.01;98916.89;105520;1251;68980;-60
2024/01/11 07:29:24;;;;;;;;;;;;;;;1.77;59.34;98908.43;105879;1254;72867;-60
2024/01/11 07:31:52;;;;;;;;;;;;;;;1.75;59.23;98896.41;105893;1254;60803;-60
2024/01/11 07:34:21;;;;;;;;;;;;;;;2.12;57.90;98909.39;105814;1257;59959;-60
2024/01/11 07:36:48;;;;;;;;;;;;;;;2.18;57.53;98905.77;105761;1257;73189;-58
2024/01/11 07:39:16;;;;;;;;;;;;;;;1.92;58.09;98902.80;105897;1251;68785;-60
2024/01/11 07:41:44;;;;;;;;;;;;;;;1.91;58.29;98901.10;105739;1251;72870;-60
2024/01/11 07:44:14;;;;;;;;;;;;;;;2.06;57.83;98903.61;105917;1251;61801;-59
2024/01/11 07:46:42;;;;;;;;;;;;;;;2.12;57.39;98890.21;105903;1251;60448;-61
2024/01/11 07:49:20;;;;;;;;;;;;;;;2.10;57.13;98896.12;105679;1251;73105;-61
2024/01/11 07:51:48;;;;;;;;;;;;;;;2.13;57.08;98894.64;105843;1257;69132;-60
2024/01/11 07:54:16;;;;;;;;;;;;;;;1.88;57.57;98899.05;105735;1251;73389;-63
2024/01/11 07:56:44;;;;;;;;;;;;;;;1.77;58.12;98899.27;105722;1257;61712;-60
2024/01/11 07:59:14;;;;;;;;;;;;;;;1.83;57.99;98893.36;105921;1258;59981;-59
2024/01/11 08:01:42;;;;;;;;;;;;;;;1.94;57.62;98888.79;105875;1257;73201;-61
2024/01/11 08:04:10;;;;;;;;;;;;;;;1.95;57.52;98882.92;105905;1251;68636;-62
2024/01/11 08:06:37;;;;;;;;;;;;;;;2.08;57.08;98877.65;105866;1258;72799;-60
2024/01/11 08:09:05;;;;;;;;;;;;;;;2.40;56.23;98868.03;105883;1254;62074;-61
2024/01/11 08:11:33;;;;;;;;;;;;;;;2.12;57.16;98865.70;105644;1254;60006;-61
2024/01/11 08:14:05;;;;;;;;;;;;;;;2.42;56.70;98872.56;105648;1262;73388;-60
2024/01/11 08:16:33;;;;;;;;;;;;;;;2.61;56.16;98868.77;105807;1259;67320;-60
2024/01/11 08:19:01;;;;;;;;;;;;;;;2.42;56.24;98868.52;105630;1254;72695;-62
2024/01/11 08:21:29;;;;;;;;;;;;;;;2.59;55.99;98869.12;105651;1254;61096;-61
2024/01/11 08:23:57;;;;;;;;;;;;;;;2.74;55.74;98875.09;105668;1254;59541;-61
2024/01/11 08:26:32;;;;;;;;;;;;;;;2.53;56.09;98873.98;105481;1254;73125;-61
2024/01/11 08:29:00;;;;;;;;;;;;;;;2.37;56.87;98872.17;105638;1254;68828;-60
2024/01/11 08:31:27;;;;;;;;;;;;;;;2.55;56.30;98878.70;105683;1260;72698;-63
2024/01/11 08:33:55;;;;;;;;;;;;;;;2.27;57.23;98878.04;105666;1253;59557;-59
2024/01/11 08:36:23;;;;;;;;;;;;;;;2.49;56.76;98880.79;105669;1254;60059;-61
2024/01/11 08:38:51;;;;;;;;;;;;;;;2.41;56.98;98878.16;105707;1259;73120;-60
2024/01/11 08:41:19;;;;;;;;;;;;;;;2.49;56.67;98885.84;105697;1254;68925;-60
2024/01/11 08:43:47;;;;;;;;;;;;;;;2.71;55.98;98872.09;105669;1259;72017;-60
2024/01/11 08:46:23;;;;;;;;;;;;;;;2.70;55.82;98870.08;105685;1254;61778;-60
2024/01/11 08:48:50;;;;;;;;;;;;;;;2.69;55.56;98869.39;105739;1254;60110;-60
2024/01/11 08:51:18;;;;;;;;;;;;;;;2.56;56.02;98866.08;105689;1254;73257;-60
2024/01/11 08:53:46;;;;;;;;;;;;;;;2.44;56.30;98860.50;105781;1254;66793;-59
2024/01/11 08:56:15;;;;;;;;;;;;;;;2.91;55.41;98860.27;105716;1254;72733;-59
2024/01/11 08:58:43;;;;;;;;;;;;;;;2.84;55.55;98855.45;105694;1254;61003;-65
2024/01/11 09:01:11;;;;;;;;;;;;;;;3.10;54.62;98856.52;105612;1254;59987;-62
2024/01/11 09:03:38;;;;;;;;;;;;;;;3.22;54.38;98854.05;105471;1259;73228;-60
2024/01/11 09:06:06;;;;;;;;;;;;;;;3.14;55.04;98849.67;105598;1259;67948;-65
2024/01/11 09:08:34;;;;;;;;;;;;;;;2.87;55.66;98841.31;105734;1254;72792;-64
2024/01/11 09:11:03;;;;;;;;;;;;;;;2.89;55.26;98833.69;105683;1259;60553;-60
2024/01/11 09:13:30;;;;;;;;;;;;;;;2.77;56.12;98842.41;105532;1260;60379;-59
2024/01/11 09:15:58;;;;;;;;;;;;;;;2.89;55.96;98835.78;105610;1254;73194;-60
2024/01/11 09:18:25;;;;;;;;;;;;;;;2.68;56.20;98825.05;105687;1254;68721;-62
2024/01/11 09:20:53;;;;;;;;;;;;;;;2.68;56.57;98828.64;105570;1257;72736;-62
2024/01/11 09:23:21;;;;;;;;;;;;;;;2.55;57.03;98816.66;105783;1254;61711;-60
2024/01/11 09:25:49;;;;;;;;;;;;;;;2.88;56.46;98821.55;105701;1254;60552;-63
2024/01/11 09:28:16;;;;;;;;;;;;;;;3.15;55.77;98821.85;105710;1259;74056;-63
2024/01/11 09:30:43;;;;;;;;;;;;;;;2.80;56.38;98822.20;105689;1254;68261;-59
2024/01/11 09:33:11;;;;;;;;;;;;;;;2.97;56.30;98811.08;105665;1254;73288;-61
2024/01/11 09:35:39;;;;;;;;;;;;;;;2.96;56.28;98810.63;105714;1254;61712;-61
2024/01/11 09:41:25;;;;;;;;;;;;;;;3.25;55.97;98802.35;102779;1293;599342;-61
2024/01/11 09:43:53;;;;;;;;;;;;;;;3.00;56.12;98798.06;104676;1267;61027;-61
2024/01/11 09:46:21;;;;;;;;;;;;;;;3.43;55.19;98804.42;104878;1267;59949;-63
2024/01/11 09:48:49;;;;;;;;;;;;;;;3.55;54.72;98796.18;104877;1265;71235;-61
2024/01/11 09:51:16;;;;;;;;;;;;;;;3.18;55.34;98788.00;104919;1267;67934;-59
2024/01/11 09:53:44;;;;;;;;;;;;;;;3.24;55.34;98792.77;104811;1270;71466;-68
2024/01/11 09:56:12;;;;;;;;;;;;;;;3.41;54.98;98789.69;105062;1268;130008;-61
2024/01/11 09:58:41;;;;;;;;;;;;;;;3.23;55.31;98790.21;105097;1269;59887;-59
2024/01/11 10:01:12;;;;;;;;;;;;;;;2.95;56.08;98783.52;105203;1269;72463;-58
2024/01/11 10:03:41;;;;;;;;;;;;;;;2.86;56.58;98773.87;104830;1264;68827;-60
2024/01/11 10:06:09;;;;;;;;;;;;;;;2.73;56.92;98766.16;104908;1263;72859;-59
2024/01/11 10:08:37;;;;;;;;;;;;;;;2.94;56.76;98767.20;105076;1269;60997;-59
2024/01/11 10:11:05;;;;;;;;;;;;;;;2.95;56.45;98764.38;105019;1264;59877;-59
2024/01/11 10:13:32;;;;;;;;;;;;;;;2.66;57.42;98749.90;105170;1269;73063;-60
2024/01/11 10:16:04;;;;;;;;;;;;;;;2.98;56.80;98751.83;105252;1266;67593;-59
2024/01/11 10:18:32;;;;;;;;;;;;;;;2.91;57.29;98747.73;105265;1263;72836;-59
2024/01/11 10:21:00;;;;;;;;;;;;;;;3.23;56.22;98748.55;105273;1261;60960;-59
2024/01/11 10:23:31;;;;;;;;;;;;;;;3.02;56.91;98745.63;105294;1260;59826;-60
2024/01/11 10:25:59;;;;;;;;;;;;;;;3.56;55.55;98740.77;105262;1266;73103;-59
2024/01/11 10:28:27;;;;;;;;;;;;;;;3.37;55.50;98740.27;105286;1266;68823;-61
2024/01/11 10:30:55;;;;;;;;;;;;;;;3.37;55.89;98734.19;105270;1261;72813;-58
2024/01/11 10:33:22;;;;;;;;;;;;;;;3.55;55.37;98725.88;105264;1263;59733;-60
2024/01/11 10:35:50;;;;;;;;;;;;;;;3.59;55.12;98725.54;105238;1263;60656;-60
2024/01/11 10:38:18;;;;;;;;;;;;;;;3.75;54.63;98719.48;105160;1266;73676;-61
2024/01/11 10:40:46;;;;;;;;;;;;;;;3.80;54.55;98715.16;105122;1263;68787;-60
2024/01/11 10:43:15;;;;;;;;;;;;;;;3.62;55.11;98711.81;105154;1264;71565;-59
2024/01/11 10:45:43;;;;;;;;;;;;;;;3.61;55.15;98699.16;105239;1262;61057;-59
2024/01/11 10:48:13;;;;;;;;;;;;;;;3.64;55.16;98700.55;105197;1263;60593;-60
2024/01/11 10:50:44;;;;;;;;;;;;;;;3.44;55.62;98703.31;105160;1263;73818;-58
2024/01/11 10:53:17;;;;;;;;;;;;;;;3.84;54.83;98703.36;104909;1263;67772;-59
2024/01/11 10:55:45;;;;;;;;;;;;;;;3.32;56.03;98687.25;105131;1263;71837;-59
2024/01/11 10:58:13;;;;;;;;;;;;;;;3.65;55.48;98701.81;104894;1263;61029;-60
2024/01/11 11:00:41;;;;;;;;;;;;;;;3.46;55.90;98701.08;105108;1263;59862;-60
2024/01/11 11:03:08;;;;;;;;;;;;;;;3.53;56.01;98695.67;105192;1267;73905;-60
2024/01/11 11:05:36;;;;;;;;;;;;;;;3.61;55.91;98697.45;105190;1263;68877;-59
2024/01/11 11:08:05;;;;;;;;;;;;;;;3.85;55.63;98694.45;104990;1269;73407;-69
2024/01/11 11:10:34;;;;;;;;;;;;;;;3.91;55.18;98689.48;104886;1265;60914;-60
2024/01/11 11:13:01;;;;;;;;;;;;;;;3.58;55.88;98683.42;104851;1272;59872;-61
2024/01/11 11:15:29;;;;;;;;;;;;;;;3.41;56.98;98675.86;104043;1274;1003748;-61
2024/01/11 11:17:57;;;;;;;;;;;;;;;3.43;57.28;98669.11;104827;1267;68815;-61
2024/01/11 11:20:25;;;;;;;;;;;;;;;3.42;57.83;98668.73;104160;1269;1003757;-59
2024/01/11 11:23:09;;;;;;;;;;;;;;;3.23;59.58;98659.61;104790;1267;59749;-58
2024/01/11 11:25:38;;;;;;;;;;;;;;;3.51;58.77;98658.18;104839;1266;59958;-60
2024/01/11 11:28:06;;;;;;;;;;;;;;;3.36;59.94;98645.03;104742;1272;73118;-59
2024/01/11 11:30:38;;;;;;;;;;;;;;;3.50;59.44;98646.88;104635;1273;67341;-60
2024/01/11 11:33:24;;;;;;;;;;;;;;;3.61;59.22;98643.39;104852;1270;72892;-59
2024/01/11 11:35:53;;;;;;;;;;;;;;;3.75;58.69;98641.20;104818;1266;61908;-61
2024/01/11 11:38:21;;;;;;;;;;;;;;;3.69;58.66;98641.02;104851;1266;59803;-60
2024/01/11 11:40:50;;;;;;;;;;;;;;;3.41;59.03;98629.54;104643;1264;71569;-60
2024/01/11 11:43:19;;;;;;;;;;;;;;;3.66;58.12;98636.59;105086;1263;68680;-60
2024/01/11 11:45:47;;;;;;;;;;;;;;;3.47;58.76;98628.66;105120;1263;72799;-60
2024/01/11 11:48:35;;;;;;;;;;;;;;;3.43;59.41;98632.36;104850;1263;60380;-60
2024/01/11 11:51:09;;;;;;;;;;;;;;;3.57;59.38;98629.27;105234;1263;60195;-60
2024/01/11 11:53:37;;;;;;;;;;;;;;;3.53;59.79;98619.70;105172;1266;73829;-60
2024/01/11 11:56:05;;;;;;;;;;;;;;;3.53;60.04;98616.30;105024;1263;67583;-62
2024/01/11 11:58:33;;;;;;;;;;;;;;;3.74;60.00;98618.68;105064;1263;72785;-59
2024/01/11 12:01:01;;;;;;;;;;;;;;;3.70;60.08;98611.64;104854;1270;60642;-61
2024/01/11 12:03:33;;;;;;;;;;;;;;;3.94;59.25;98609.73;105519;1256;60405;-60
2024/01/11 12:06:00;;;;;;;;;;;;;;;3.55;60.11;98596.77;104829;1260;1002938;-60
2024/01/11 12:08:28;;;;;;;;;;;;;;;3.45;60.56;98596.57;105581;1254;69320;-64
2024/01/11 12:10:56;;;;;;;;;;;;;;;3.34;61.35;98589.14;105515;1256;72709;-61
2024/01/11 12:13:24;;;;;;;;;;;;;;;3.48;60.32;98591.14;105518;1254;62354;-61
2024/01/11 12:15:51;;;;;;;;;;;;;;;3.47;60.23;98583.80;105373;1260;60995;-60
2024/01/11 12:18:19;;;;;;;;;;;;;;;3.65;59.80;98583.44;105290;1260;73049;-61
2024/01/11 12:20:47;;;;;;;;;;;;;;;3.89;58.77;98579.82;105519;1254;68610;-60
2024/01/11 12:23:15;;;;;;;;;;;;;;;3.90;58.50;98575.41;105675;1256;72871;-60
2024/01/11 12:25:43;;;;;;;;;;;;;;;3.77;58.43;98575.42;105691;1253;61500;-64
2024/01/11 12:28:10;;;;;;;;;;;;;;;3.69;58.47;98572.44;105687;1254;60077;-64
2024/01/11 12:30:38;;;;;;;;;;;;;;;3.47;59.37;98569.71;105521;1253;73079;-64
2024/01/11 12:33:06;;;;;;;;;;;;;;;3.51;59.43;98569.70;105218;1253;67948;-63
2024/01/11 12:35:34;;;;;;;;;;;;;;;3.71;58.74;98575.55;105648;1256;72734;-62
2024/01/11 12:38:05;;;;;;;;;;;;;;;3.62;58.59;98561.13;105693;1254;61103;-65
2024/01/11 12:40:40;;;;;;;;;;;;;;;3.63;58.57;98568.21;105600;1254;59867;-58
2024/01/11 12:43:08;;;;;;;;;;;;;;;3.43;58.38;98562.44;105700;1256;73452;-60
2024/01/11 12:45:35;;;;;;;;;;;;;;;3.56;58.10;98556.38;105681;1253;68843;-60
2024/01/11 12:48:03;;;;;;;;;;;;;;;3.74;57.46;98560.07;105667;1254;72709;-60
2024/01/11 12:50:34;;;;;;;;;;;;;;;3.62;58.08;98553.48;105646;1253;61058;-60
2024/01/11 12:53:08;;;;;;;;;;;;;;;3.74;58.06;98551.67;104797;1257;1003096;-60